createdAt,value
2018-04-12T00:01:48.330Z,4.77
2018-04-12T00:04:54.450Z,4.47
2018-04-12T00:08:00.090Z,4.50
2018-04-12T00:11:05.302Z,4.93
2018-04-12T00:14:10.233Z,5.17
2018-04-12T00:17:15.453Z,5.17
2018-04-12T00:20:20.663Z,3.80
2018-04-12T00:23:26.785Z,5.00
2018-04-12T00:26:32.400Z,4.57
2018-04-12T00:29:38.401Z,3.93
2018-04-12T00:32:44.637Z,4.70
2018-04-12T00:35:49.862Z,4.10
2018-04-12T00:38:55.999Z,4.50
2018-04-12T00:42:01.969Z,4.10
2018-04-12T00:45:08.072Z,4.47
2018-04-12T00:48:13.269Z,4.43
2018-04-12T00:51:18.971Z,3.93
2018-04-12T00:54:24.877Z,4.70
2018-04-12T00:57:30.081Z,5.03
2018-04-12T01:00:35.712Z,3.70
2018-04-12T01:03:41.914Z,4.30
2018-04-12T01:06:47.140Z,4.13
2018-04-12T01:09:53.250Z,3.87
2018-04-12T01:12:58.464Z,5.10
2018-04-12T01:16:04.573Z,4.20
2018-04-12T01:19:09.694Z,4.10
2018-04-12T01:22:14.893Z,4.53
2018-04-12T01:25:20.126Z,5.10
2018-04-12T01:28:25.293Z,4.43
2018-04-12T01:31:30.921Z,5.00
2018-04-12T01:34:37.049Z,5.20
2018-04-12T01:37:42.277Z,4.40
2018-04-12T01:40:47.497Z,5.17
2018-04-12T01:43:52.701Z,5.83
2018-04-12T01:46:58.436Z,4.83
2018-04-12T01:50:04.033Z,5.30
2018-04-12T01:53:09.286Z,5.20
2018-04-12T01:56:15.200Z,5.07
2018-04-12T01:59:21.351Z,5.30
2018-04-12T02:02:27.573Z,5.30
2018-04-12T02:05:33.426Z,4.33
2018-04-12T02:08:38.835Z,5.37
2018-04-12T02:11:44.461Z,5.17
2018-04-12T02:14:50.273Z,4.87
2018-04-12T02:17:56.406Z,5.83
2018-04-12T02:21:02.030Z,4.43
2018-04-12T02:24:08.154Z,4.60
2018-04-12T02:27:13.829Z,4.87
2018-04-12T02:30:19.288Z,5.90
2018-04-12T02:33:24.652Z,5.17
2018-04-12T02:36:30.401Z,5.40
2018-04-12T02:39:35.640Z,5.33
2018-04-12T02:42:40.557Z,5.60
2018-04-12T02:45:46.594Z,5.17
2018-04-12T02:48:52.658Z,4.70
2018-04-12T02:51:58.785Z,5.17
2018-04-12T02:55:03.779Z,5.30
2018-04-12T02:58:09.697Z,6.30
2018-04-12T03:01:16.581Z,5.50
2018-04-12T03:04:22.402Z,6.83
2018-04-12T03:07:28.545Z,6.00
2018-04-12T03:10:33.752Z,5.80
2018-04-12T03:13:38.966Z,6.30
2018-04-12T03:16:44.601Z,6.40
2018-04-12T03:19:50.006Z,6.63
2018-04-12T03:22:55.228Z,7.40
2018-04-12T03:26:00.281Z,5.80
2018-04-12T03:29:05.917Z,6.40
2018-04-12T03:32:11.137Z,6.30
2018-04-12T03:35:16.365Z,6.83
2018-04-12T03:38:21.609Z,6.20
2018-04-12T03:41:26.793Z,7.23
2018-04-12T03:44:31.665Z,6.40
2018-04-12T03:47:37.803Z,7.17
2018-04-12T03:50:43.149Z,6.27
2018-04-12T03:53:48.361Z,7.83
2018-04-12T03:56:54.277Z,8.10
2018-04-12T03:59:59.249Z,7.37
2018-04-12T04:03:04.478Z,6.87
2018-04-12T04:06:10.193Z,8.27
2018-04-12T04:09:15.527Z,6.53
2018-04-12T04:12:20.517Z,8.00
2018-04-12T04:15:36.542Z,6.23
2018-04-12T04:18:52.217Z,7.87
2018-04-12T04:21:58.784Z,8.00
2018-04-12T04:25:03.671Z,7.10
2018-04-12T04:28:09.286Z,6.30
2018-04-12T04:31:14.481Z,6.80
2018-04-12T04:34:20.118Z,7.50
2018-04-12T04:37:25.325Z,6.90
2018-04-12T04:40:31.172Z,7.17
2018-04-12T04:43:36.777Z,6.40
2018-04-12T04:46:41.998Z,7.20
2018-04-12T04:49:47.200Z,8.03
2018-04-12T04:52:52.617Z,6.70
2018-04-12T04:55:58.541Z,8.03
2018-04-12T04:59:03.764Z,6.83
2018-04-12T05:02:10.416Z,7.10
2018-04-12T05:05:15.108Z,6.53
2018-04-12T05:08:20.121Z,6.83
2018-04-12T05:11:25.361Z,7.53
2018-04-12T05:14:31.101Z,6.43
2018-04-12T05:17:36.313Z,7.90
2018-04-12T05:20:41.509Z,6.97
2018-04-12T05:23:46.734Z,7.60
2018-04-12T05:26:52.769Z,7.37
2018-04-12T05:29:57.742Z,7.60
2018-04-12T05:33:02.951Z,7.90
2018-04-12T05:36:08.169Z,7.20
2018-04-12T05:39:14.482Z,7.33
2018-04-12T05:42:20.623Z,7.27
2018-04-12T05:45:26.280Z,8.20
2018-04-12T05:48:31.459Z,7.40
2018-04-12T05:51:37.591Z,8.00
2018-04-12T05:54:42.517Z,7.67
2018-04-12T05:57:48.541Z,7.93
2018-04-12T06:00:53.741Z,8.43
2018-04-12T06:03:58.960Z,8.57
2018-04-12T06:07:04.441Z,8.07
2018-04-12T06:10:09.763Z,8.17
2018-04-12T06:13:14.961Z,7.50
2018-04-12T06:16:20.786Z,6.97
2018-04-12T06:19:26.897Z,8.30
2018-04-12T06:22:32.525Z,7.30
2018-04-12T06:25:37.729Z,8.40
2018-04-12T06:28:43.591Z,8.00
2018-04-12T06:31:49.692Z,8.50
2018-04-12T06:34:55.326Z,7.90
2018-04-12T06:38:00.535Z,8.40
2018-04-12T06:41:06.901Z,8.50
2018-04-12T06:44:12.100Z,8.80
2018-04-12T06:47:17.713Z,7.80
2018-04-12T06:50:23.602Z,9.03
2018-04-12T06:53:29.718Z,8.40
2018-04-12T06:56:34.655Z,8.33
2018-04-12T06:59:40.299Z,8.40
2018-04-12T07:02:45.522Z,8.40
2018-04-12T07:05:51.718Z,9.20
2018-04-12T07:08:57.105Z,8.60
2018-04-12T07:12:02.297Z,8.50
2018-04-12T07:15:08.231Z,8.03
2018-04-12T07:18:13.448Z,8.33
2018-04-12T07:21:19.165Z,9.10
2018-04-12T07:24:24.382Z,9.03
2018-04-12T07:27:29.373Z,10.03
2018-04-12T07:30:34.654Z,9.97
2018-04-12T07:33:40.393Z,10.00
2018-04-12T07:36:46.417Z,9.57
2018-04-12T07:39:51.813Z,9.90
2018-04-12T07:42:57.026Z,10.90
2018-04-12T07:46:02.670Z,10.47
2018-04-12T07:49:08.823Z,11.10
2018-04-12T07:52:14.453Z,10.50
2018-04-12T07:55:20.493Z,10.70
2018-04-12T07:58:26.609Z,10.80
2018-04-12T08:01:32.005Z,10.77
2018-04-12T08:04:37.218Z,10.70
2018-04-12T08:07:43.383Z,12.10
2018-04-12T08:10:48.321Z,11.33
2018-04-12T08:13:53.978Z,10.77
2018-04-12T08:16:59.889Z,12.20
2018-04-12T08:20:04.585Z,10.73
2018-04-12T08:23:10.500Z,11.13
2018-04-12T08:26:15.712Z,12.00
2018-04-12T08:29:20.940Z,12.00
2018-04-12T08:32:26.589Z,12.20
2018-04-12T08:35:31.839Z,12.37
2018-04-12T08:38:38.586Z,11.60
2018-04-12T08:41:44.206Z,12.43
2018-04-12T08:44:50.531Z,11.87
2018-04-12T08:47:55.759Z,11.90
2018-04-12T08:51:00.891Z,12.23
2018-04-12T08:54:07.029Z,13.60
2018-04-12T08:57:11.916Z,13.73
2018-04-12T09:00:17.053Z,11.67
2018-04-12T09:03:22.989Z,12.47
2018-04-12T09:06:28.239Z,12.20
2018-04-12T09:09:33.176Z,12.43
2018-04-12T09:12:38.390Z,11.10
2018-04-12T09:15:44.033Z,11.87
2018-04-12T09:18:50.375Z,10.43
2018-04-12T09:21:56.513Z,12.93
2018-04-12T09:25:01.728Z,13.30
2018-04-12T09:28:07.870Z,11.90
2018-04-12T09:31:13.097Z,13.40
2018-04-12T09:34:18.254Z,12.40
2018-04-12T09:37:23.480Z,12.10
2018-04-12T09:40:29.153Z,13.50
2018-04-12T09:43:35.106Z,12.47
2018-04-12T09:46:40.049Z,12.63
2018-04-12T09:49:45.990Z,12.53
2018-04-12T09:52:51.225Z,12.07
2018-04-12T09:55:56.472Z,13.00
2018-04-12T09:59:01.690Z,12.33
2018-04-12T10:02:06.682Z,14.33
2018-04-12T10:05:17.810Z,13.63
2018-04-12T10:08:27.696Z,12.70
2018-04-12T10:11:33.921Z,14.00
2018-04-12T10:14:40.061Z,12.67
2018-04-12T10:17:45.295Z,13.00
2018-04-12T10:20:50.523Z,12.73
2018-04-12T10:23:55.752Z,13.80
2018-04-12T10:27:00.965Z,13.53
2018-04-12T10:30:07.185Z,13.20
2018-04-12T10:33:13.338Z,13.17
2018-04-12T10:36:19.153Z,14.10
2018-04-12T10:39:24.399Z,13.30
2018-04-12T10:42:29.617Z,13.73
2018-04-12T10:45:35.142Z,14.20
2018-04-12T10:48:40.357Z,13.53
2018-04-12T10:51:45.402Z,13.07
2018-04-12T10:54:50.809Z,12.80
2018-04-12T10:57:56.870Z,13.40
2018-04-12T11:01:02.098Z,12.83
2018-04-12T11:04:08.102Z,14.03
2018-04-12T11:07:13.531Z,13.70
2018-04-12T11:10:19.278Z,13.60
2018-04-12T11:13:24.493Z,13.63
2018-04-12T11:16:30.529Z,14.47
2018-04-12T11:19:36.498Z,13.90
2018-04-12T11:22:42.554Z,13.97
2018-04-12T11:25:48.520Z,14.50
2018-04-12T11:28:54.670Z,14.00
2018-04-12T11:31:59.610Z,15.60
2018-04-12T11:35:04.524Z,15.23
2018-04-12T11:38:10.940Z,14.87
2018-04-12T11:41:16.161Z,14.20
2018-04-12T11:44:22.111Z,16.60
2018-04-12T11:47:27.110Z,16.90
2018-04-12T11:50:33.356Z,15.87
2018-04-12T11:53:39.185Z,16.43
2018-04-12T11:56:45.174Z,16.97
2018-04-12T11:59:51.484Z,15.17
2018-04-12T12:02:56.713Z,15.70
2018-04-12T12:06:01.659Z,16.80
2018-04-12T12:09:08.241Z,15.30
2018-04-12T12:12:14.119Z,15.60
2018-04-12T12:15:20.245Z,15.17
2018-04-12T12:18:26.402Z,15.40
2018-04-12T12:21:32.494Z,14.00
2018-04-12T12:24:38.432Z,15.27
2018-04-12T12:27:44.457Z,15.53
2018-04-12T12:30:50.505Z,14.97
2018-04-12T12:33:56.320Z,13.77
2018-04-12T12:37:01.545Z,14.60
2018-04-12T12:40:06.514Z,15.47
2018-04-12T12:43:12.474Z,16.60
2018-04-12T12:46:18.338Z,14.87
2018-04-12T12:49:24.471Z,14.90
2018-04-12T12:52:30.106Z,15.33
2018-04-12T12:55:35.821Z,14.87
2018-04-12T12:58:41.244Z,15.10
2018-04-12T13:01:46.482Z,14.97
2018-04-12T13:04:52.163Z,14.80
2018-04-12T13:07:57.374Z,15.30
2018-04-12T13:11:02.621Z,14.90
2018-04-12T13:14:08.953Z,14.40
2018-04-12T13:17:14.171Z,15.47
2018-04-12T13:20:20.392Z,15.13
2018-04-12T13:23:26.019Z,14.73
2018-04-12T13:26:31.771Z,14.83
2018-04-12T13:29:36.998Z,15.33
2018-04-12T13:32:42.721Z,15.30
2018-04-12T13:35:48.677Z,15.63
2018-04-12T13:38:54.099Z,15.03
2018-04-12T13:41:59.748Z,13.87
2018-04-12T13:45:04.421Z,12.67
2018-04-12T13:48:12.063Z,14.60
2018-04-12T13:51:19.149Z,16.03
2018-04-12T13:54:24.757Z,14.20
2018-04-12T13:57:30.007Z,14.20
2018-04-12T14:00:35.222Z,15.20
2018-04-12T14:03:40.441Z,13.40
2018-04-12T14:06:45.685Z,14.37
2018-04-12T14:09:50.621Z,14.50
2018-04-12T14:12:57.298Z,15.40
2018-04-12T14:16:02.520Z,14.73
2018-04-12T14:19:07.741Z,14.70
2018-04-12T14:22:13.470Z,13.23
2018-04-12T14:25:19.533Z,13.83
2018-04-12T14:28:25.694Z,14.63
2018-04-12T14:31:31.734Z,15.40
2018-04-12T14:34:37.669Z,13.80
2018-04-12T14:37:42.891Z,14.00
2018-04-12T14:40:48.482Z,13.70
2018-04-12T14:43:53.708Z,13.90
2018-04-12T14:46:58.938Z,14.30
2018-04-12T14:50:04.726Z,15.20
2018-04-12T14:53:09.969Z,14.27
2018-04-12T14:56:15.178Z,14.83
2018-04-12T14:59:20.412Z,14.27
2018-04-12T15:02:26.552Z,15.43
2018-04-12T15:05:32.600Z,14.50
2018-04-12T15:08:38.033Z,15.50
2018-04-12T15:11:43.669Z,15.20
2018-04-12T15:14:48.884Z,15.77
2018-04-12T15:17:54.112Z,14.43
2018-04-12T15:21:00.276Z,15.90
2018-04-12T15:24:05.990Z,15.33
2018-04-12T15:27:11.377Z,14.30
2018-04-12T15:30:16.794Z,14.73
2018-04-12T15:33:22.024Z,15.37
2018-04-12T15:36:27.754Z,15.30
2018-04-12T15:39:32.978Z,15.03
2018-04-12T15:42:39.731Z,14.10
2018-04-12T15:45:45.116Z,14.83
2018-04-12T15:48:50.560Z,15.00
2018-04-12T15:51:55.981Z,15.57
2018-04-12T15:55:01.905Z,16.60
2018-04-12T15:58:08.007Z,15.23
2018-04-12T16:01:13.601Z,16.23
2018-04-12T16:04:18.541Z,15.20
2018-04-12T16:07:24.040Z,16.23
2018-04-12T16:10:28.979Z,15.13
2018-04-12T16:13:34.852Z,14.93
2018-04-12T16:16:40.704Z,14.40
2018-04-12T16:19:46.060Z,15.80
2018-04-12T16:22:51.031Z,14.33
2018-04-12T16:25:56.009Z,14.90
2018-04-12T16:29:01.593Z,13.63
2018-04-12T16:32:07.907Z,15.40
2018-04-12T16:35:13.211Z,13.57
2018-04-12T16:38:19.127Z,14.70
2018-04-12T16:41:24.455Z,13.53
2018-04-12T16:44:29.428Z,13.23
2018-04-12T16:47:34.573Z,13.57
2018-04-12T16:50:39.293Z,13.70
2018-04-12T16:53:45.429Z,12.53
2018-04-12T16:56:51.123Z,12.40
2018-04-12T16:59:57.088Z,12.87
2018-04-12T17:03:02.201Z,11.60
2018-04-12T17:06:07.649Z,11.83
2018-04-12T17:09:13.025Z,11.00
2018-04-12T17:12:19.410Z,12.17
2018-04-12T17:15:25.066Z,12.80
2018-04-12T17:18:30.005Z,11.07
2018-04-12T17:21:35.243Z,12.20
2018-04-12T17:24:40.706Z,11.30
2018-04-12T17:27:45.856Z,12.37
2018-04-12T17:30:51.537Z,12.10
2018-04-12T17:33:57.447Z,10.00
2018-04-12T17:37:03.148Z,12.47
2018-04-12T17:40:08.907Z,11.33
2018-04-12T17:43:14.933Z,11.07
2018-04-12T17:46:20.170Z,11.77
2018-04-12T17:49:25.539Z,10.20
2018-04-12T17:52:31.624Z,10.40
2018-04-12T17:55:36.566Z,10.80
2018-04-12T17:58:42.511Z,10.83
2018-04-12T18:01:48.370Z,10.93
2018-04-12T18:04:54.165Z,10.17
2018-04-12T18:08:00.026Z,9.70
2018-04-12T18:11:05.392Z,10.63
2018-04-12T18:14:11.363Z,10.60
2018-04-12T18:17:17.284Z,10.47
2018-04-12T18:20:22.239Z,10.80
2018-04-12T18:23:27.457Z,10.30
2018-04-12T18:26:32.396Z,9.90
2018-04-12T18:29:38.360Z,10.67
2018-04-12T18:32:43.994Z,11.27
2018-04-12T18:35:48.933Z,10.20
2018-04-12T18:38:54.883Z,9.43
2018-04-12T18:41:59.819Z,9.80
2018-04-12T18:45:05.581Z,10.43
2018-04-12T18:48:11.434Z,10.03
2018-04-12T18:51:17.059Z,9.70
2018-04-12T18:54:22.977Z,9.87
2018-04-12T18:57:28.181Z,9.03
2018-04-12T19:00:33.618Z,9.30
2018-04-12T19:03:38.559Z,9.87
2018-04-12T19:06:45.125Z,9.80
2018-04-12T19:09:50.054Z,11.53
2018-04-12T19:12:55.593Z,9.87
2018-04-12T19:16:00.525Z,10.00
2018-04-12T19:19:05.426Z,10.27
2018-04-12T19:22:10.874Z,9.93
2018-04-12T19:25:15.813Z,9.60
2018-04-12T19:28:21.271Z,9.93
2018-04-12T19:31:26.190Z,9.73
2018-04-12T19:34:31.653Z,9.37
2018-04-12T19:37:36.577Z,11.00
2018-04-12T19:40:41.934Z,9.80
2018-04-12T19:43:46.864Z,10.20
2018-04-12T19:46:52.537Z,10.20
2018-04-12T19:49:57.471Z,11.43
2018-04-12T19:53:02.409Z,10.53
2018-04-12T19:56:08.161Z,11.20
2018-04-12T19:59:13.923Z,10.80
2018-04-12T20:02:19.959Z,10.70
2018-04-12T20:05:24.900Z,9.90
2018-04-12T20:08:30.938Z,10.87
2018-04-12T20:11:35.878Z,10.40
2018-04-12T20:14:42.018Z,10.33
2018-04-12T20:17:46.527Z,11.23
2018-04-12T20:20:52.094Z,10.93
2018-04-12T20:23:57.971Z,11.87
2018-04-12T20:27:02.908Z,11.07
2018-04-12T20:30:07.844Z,11.87
2018-04-12T20:33:13.627Z,10.83
2018-04-12T20:36:18.629Z,11.47
2018-04-12T20:39:24.025Z,12.00
2018-04-12T20:42:28.977Z,12.00
2018-04-12T20:45:33.912Z,11.90
2018-04-12T20:48:38.860Z,10.77
2018-04-12T20:51:44.329Z,11.23
2018-04-12T20:54:49.285Z,10.07
2018-04-12T20:57:54.754Z,11.73
2018-04-12T21:01:00.185Z,10.37
2018-04-12T21:04:06.544Z,10.90
2018-04-12T21:07:12.089Z,11.37
2018-04-12T21:10:17.455Z,10.40
2018-04-12T21:13:22.393Z,11.10
2018-04-12T21:16:27.509Z,10.37
2018-04-12T21:19:32.451Z,10.67
2018-04-12T21:22:38.097Z,9.90
2018-04-12T21:25:43.030Z,9.30
2018-04-12T21:28:49.082Z,10.60
2018-04-12T21:31:54.522Z,9.80
2018-04-12T21:35:00.404Z,10.27
2018-04-12T21:38:05.610Z,8.97
2018-04-12T21:41:11.457Z,10.57
2018-04-12T21:44:17.169Z,9.93
2018-04-12T21:47:22.805Z,10.10
2018-04-12T21:50:27.750Z,10.50
2018-04-12T21:53:33.081Z,8.53
2018-04-12T21:56:38.020Z,11.33
2018-04-12T21:59:43.370Z,8.73
2018-04-12T22:02:49.247Z,10.97
2018-04-12T22:05:55.076Z,9.77
2018-04-12T22:09:00.016Z,9.70
2018-04-12T22:12:05.760Z,9.43
2018-04-12T22:15:10.701Z,10.37
2018-04-12T22:18:16.045Z,10.00
2018-04-12T22:21:20.982Z,9.33
2018-04-12T22:24:27.550Z,10.93
2018-04-12T22:27:34.576Z,10.53
2018-04-12T22:30:40.126Z,10.63
2018-04-12T22:33:45.684Z,10.83
2018-04-12T22:36:50.661Z,10.27
2018-04-12T22:39:56.211Z,10.30
2018-04-12T22:43:02.057Z,9.47
2018-04-12T22:46:07.806Z,10.67
2018-04-12T22:49:13.439Z,9.10
2018-04-12T22:52:19.193Z,10.07
2018-04-12T22:55:25.025Z,10.20
2018-04-12T22:58:30.877Z,11.20
2018-04-12T23:01:36.116Z,10.17
2018-04-12T23:04:41.333Z,11.23
2018-04-12T23:07:46.549Z,9.77
2018-04-12T23:10:51.753Z,10.70
2018-04-12T23:13:57.902Z,10.30
2018-04-12T23:17:03.514Z,11.60
2018-04-12T23:20:08.728Z,11.10
2018-04-12T23:23:14.751Z,10.17
2018-04-12T23:26:20.421Z,10.53
2018-04-12T23:29:25.661Z,10.37
2018-04-12T23:32:30.860Z,12.37
2018-04-12T23:35:36.076Z,10.67
2018-04-12T23:38:41.295Z,11.43
2018-04-12T23:41:47.439Z,10.90
2018-04-12T23:44:53.077Z,11.90
2018-04-12T23:47:59.193Z,11.67
2018-04-12T23:51:05.222Z,11.53
2018-04-12T23:54:11.386Z,11.30
2018-04-12T23:57:17.326Z,11.80
